Time,TemperatureF,DewpointF,PressureIn,WindDirection,WindDirectionDegrees,WindSpeedMPH,WindSpeedGustMPH,Humidity,HourlyPrecipIn,Conditions,Clouds,dailyrainin,SoftwareType,DateUTC
2013-01-10 00:00:00,43.3,36.2,30.10,West,281,3.0,13.0,76,0.00,,,0.00,Wunderground PWS Mod,2013-01-10 05:00:00,
2013-01-10 00:01:00,43.3,36.2,30.10,West,262,3.0,13.0,76,0.00,,,0.00,Wunderground PWS Mod,2013-01-10 05:01:00,
2013-01-10 00:03:00,43.3,36.2,30.10,West,276,4.0,13.0,76,0.00,,,0.00,Wunderground PWS Mod,2013-01-10 05:03:00,
2013-01-10 00:04:00,43.2,36.1,30.10,West,279,3.0,13.0,76,0.00,,,0.00,Wunderground PWS Mod,2013-01-10 05:04:00,
2013-01-10 00:10:00,43.2,36.1,30.11,WNW,284,3.0,8.0,76,0.00,,,0.00,Wunderground PWS Mod,2013-01-10 05:10:00,
2013-01-10 00:14:00,42.2,35.8,30.12,West,270,2.0,6.0,78,0.00,,,0.00,Wunderground PWS Mod,2013-01-10 05:14:00,
2013-01-10 00:16:00,43.0,36.0,30.11,WNW,284,3.0,8.0,76,0.00,,,0.00,Wunderground PWS Mod,2013-01-10 05:16:00,
2013-01-10 00:22:00,42.7,36.0,30.11,West,273,3.0,8.0,77,0.00,,,0.00,Wunderground PWS Mod,2013-01-10 05:22:00,
2013-01-10 00:27:00,42.5,35.8,30.11,West,271,2.0,8.0,77,0.00,,,0.00,Wunderground PWS Mod,2013-01-10 05:27:00,
2013-01-10 00:32:00,42.2,35.8,30.12,West,270,1.0,8.0,78,0.00,,,0.00,Wunderground PWS Mod,2013-01-10 05:32:00,
2013-01-10 00:37:00,42.0,35.6,30.11,West,269,1.0,8.0,78,0.00,,,0.00,Wunderground PWS Mod,2013-01-10 05:37:00,
2013-01-10 00:42:00,41.8,35.4,30.11,West,269,1.0,8.0,78,0.00,,,0.00,Wunderground PWS Mod,2013-01-10 05:42:00,
2013-01-10 00:48:00,41.5,35.5,30.12,WSW,257,0.0,8.0,79,0.00,,,0.00,Wunderground PWS Mod,2013-01-10 05:48:00,
2013-01-10 00:54:00,41.4,35.4,30.12,West,265,1.0,8.0,79,0.00,,,0.00,Wunderground PWS Mod,2013-01-10 05:54:00,
2013-01-10 01:00:00,41.3,35.3,30.12,West,265,2.0,8.0,79,0.00,,,0.00,Wunderground PWS Mod,2013-01-10 06:00:00,
2013-01-10 01:05:00,41.0,35.3,30.12,West,268,2.0,8.0,80,0.00,,,0.00,Wunderground PWS Mod,2013-01-10 06:05:00,
2013-01-10 01:10:00,41.0,35.3,30.12,West,269,2.0,8.0,80,0.00,,,0.00,Wunderground PWS Mod,2013-01-10 06:10:00,
2013-01-10 01:16:00,40.9,35.2,30.12,West,271,2.0,8.0,80,0.00,,,0.00,Wunderground PWS Mod,2013-01-10 06:16:00,
2013-01-10 01:22:00,40.9,35.2,30.12,West,260,3.0,8.0,80,0.00,,,0.00,Wunderground PWS Mod,2013-01-10 06:22:00,
2013-01-10 01:27:00,40.9,35.2,30.12,West,274,3.0,8.0,80,0.00,,,0.00,Wunderground PWS Mod,2013-01-10 06:27:00,
2013-01-10 01:32:00,41.1,35.1,30.12,West,277,4.0,8.0,79,0.00,,,0.00,Wunderground PWS Mod,2013-01-10 06:32:00,
2013-01-10 01:38:00,41.0,35.0,30.13,West,278,3.0,8.0,79,0.00,,,0.00,Wunderground PWS Mod,2013-01-10 06:38:00,
2013-01-10 01:43:00,40.9,35.2,30.13,WSW,255,4.0,8.0,80,0.00,,,0.00,Wunderground PWS Mod,2013-01-10 06:43:00,
2013-01-10 01:48:00,40.9,35.2,30.13,West,271,4.0,8.0,80,0.00,,,0.00,Wunderground PWS Mod,2013-01-10 06:48:00,
2013-01-10 01:54:00,41.0,35.3,30.13,West,281,4.0,8.0,80,0.00,,,0.00,Wunderground PWS Mod,2013-01-10 06:54:00,
2013-01-10 02:00:00,40.9,34.9,30.14,West,276,3.0,8.0,79,0.00,,,0.00,Wunderground PWS Mod,2013-01-10 07:00:00,
2013-01-10 02:05:00,40.9,34.9,30.14,West,277,4.0,8.0,79,0.00,,,0.00,Wunderground PWS Mod,2013-01-10 07:05:00,
2013-01-10 02:11:00,40.8,34.8,30.15,West,269,3.0,8.0,79,0.00,,,0.00,Wunderground PWS Mod,2013-01-10 07:11:00,
2013-01-10 02:16:00,40.7,34.7,30.15,West,275,3.0,8.0,79,0.00,,,0.00,Wunderground PWS Mod,2013-01-10 07:16:00,
2013-01-10 02:21:00,40.6,34.6,30.15,WNW,284,3.0,8.0,79,0.00,,,0.00,Wunderground PWS Mod,2013-01-10 07:21:00,
2013-01-10 02:27:00,40.6,34.6,30.16,West,271,3.0,8.0,79,0.00,,,0.00,Wunderground PWS Mod,2013-01-10 07:27:00,
2013-01-10 02:33:00,40.4,34.4,30.17,West,281,3.0,8.0,79,0.00,,,0.00,Wunderground PWS Mod,2013-01-10 07:33:00,
2013-01-10 02:38:00,40.3,34.3,30.17,West,279,3.0,8.0,79,0.00,,,0.00,Wunderground PWS Mod,2013-01-10 07:38:00,
2013-01-10 02:43:00,40.4,34.1,30.17,West,267,3.0,8.0,78,0.00,,,0.00,Wunderground PWS Mod,2013-01-10 07:43:00,
2013-01-10 02:48:00,40.4,33.8,30.17,SW,231,3.0,8.0,77,0.00,,,0.00,Wunderground PWS Mod,2013-01-10 07:48:00,
2013-01-10 02:53:00,40.5,33.2,30.18,West,279,3.0,8.0,75,0.00,,,0.00,Wunderground PWS Mod,2013-01-10 07:53:00,
2013-01-10 02:59:00,40.8,31.8,30.17,West,279,4.0,8.0,70,0.00,,,0.00,Wunderground PWS Mod,2013-01-10 07:59:00,
2013-01-10 03:04:00,41.5,30.2,30.18,NNW,330,5.0,8.0,64,0.00,,,0.00,Wunderground PWS Mod,2013-01-10 08:04:00,
2013-01-10 03:10:00,41.8,28.9,30.18,East,83,5.0,8.0,60,0.00,,,0.00,Wunderground PWS Mod,2013-01-10 08:10:00,
2013-01-10 03:15:00,42.2,27.6,30.18,NW,323,5.0,8.0,56,0.00,,,0.00,Wunderground PWS Mod,2013-01-10 08:15:00,
2013-01-10 03:20:00,42.5,27.0,30.18,West,269,6.0,8.0,54,0.00,,,0.00,Wunderground PWS Mod,2013-01-10 08:20:00,
2013-01-10 03:26:00,42.5,26.6,30.19,North,349,5.0,8.0,53,0.00,,,0.00,Wunderground PWS Mod,2013-01-10 08:26:00,
2013-01-10 03:31:00,42.4,26.5,30.19,WNW,294,4.0,8.0,53,0.00,,,0.00,Wunderground PWS Mod,2013-01-10 08:31:00,
2013-01-10 03:37:00,41.9,26.9,30.19,West,279,2.0,8.0,55,0.00,,,0.00,Wunderground PWS Mod,2013-01-10 08:37:00,
2013-01-10 03:42:00,41.6,27.1,30.19,West,266,2.0,8.0,56,0.00,,,0.00,Wunderground PWS Mod,2013-01-10 08:42:00,
2013-01-10 03:47:00,41.2,27.1,30.19,West,273,3.0,8.0,57,0.00,,,0.00,Wunderground PWS Mod,2013-01-10 08:47:00,
2013-01-10 03:53:00,41.0,27.3,30.19,West,277,3.0,8.0,58,0.00,,,0.00,Wunderground PWS Mod,2013-01-10 08:53:00,
2013-01-10 03:58:00,40.9,27.2,30.19,WNW,296,3.0,8.0,58,0.00,,,0.00,Wunderground PWS Mod,2013-01-10 08:58:00,
2013-01-10 04:03:00,40.9,27.2,30.20,WNW,300,3.0,8.0,58,0.00,,,0.00,Wunderground PWS Mod,2013-01-10 09:03:00,
2013-01-10 04:09:00,41.0,27.3,30.20,WNW,298,2.0,12.0,58,0.00,,,0.00,Wunderground PWS Mod,2013-01-10 09:09:00,
2013-01-10 04:14:00,41.1,27.0,30.20,NW,324,2.0,12.0,57,0.00,,,0.00,Wunderground PWS Mod,2013-01-10 09:14:00,
2013-01-10 04:20:00,41.1,27.0,30.20,WNW,292,3.0,12.0,57,0.00,,,0.00,Wunderground PWS Mod,2013-01-10 09:20:00,
2013-01-10 04:25:00,41.1,27.0,30.20,NW,309,2.0,12.0,57,0.00,,,0.00,Wunderground PWS Mod,2013-01-10 09:25:00,
2013-01-10 04:31:00,41.1,27.4,30.20,WNW,283,3.0,12.0,58,0.00,,,0.00,Wunderground PWS Mod,2013-01-10 09:31:00,
2013-01-10 04:36:00,41.0,27.3,30.20,NNW,327,3.0,12.0,58,0.00,,,0.00,Wunderground PWS Mod,2013-01-10 09:36:00,
2013-01-10 04:41:00,41.0,27.3,30.20,NW,308,3.0,12.0,58,0.00,,,0.00,Wunderground PWS Mod,2013-01-10 09:41:00,
2013-01-10 04:46:00,40.9,27.2,30.21,WNW,294,3.0,12.0,58,0.00,,,0.00,Wunderground PWS Mod,2013-01-10 09:46:00,
2013-01-10 04:52:00,40.8,27.2,30.21,WNW,293,2.0,12.0,58,0.00,,,0.00,Wunderground PWS Mod,2013-01-10 09:52:00,
2013-01-10 04:57:00,40.9,27.2,30.21,WNW,292,2.0,12.0,58,0.00,,,0.00,Wunderground PWS Mod,2013-01-10 09:57:00,
2013-01-10 05:03:00,41.0,27.3,30.22,WNW,290,3.0,12.0,58,0.00,,,0.00,Wunderground PWS Mod,2013-01-10 10:03:00,
2013-01-10 05:08:00,40.8,27.6,30.22,NE,36,3.0,12.0,59,0.00,,,0.00,Wunderground PWS Mod,2013-01-10 10:08:00,
2013-01-10 05:13:00,40.7,27.5,30.23,NW,321,1.0,12.0,59,0.00,,,0.00,Wunderground PWS Mod,2013-01-10 10:13:00,
2013-01-10 05:18:00,40.6,27.4,30.23,West,268,2.0,12.0,59,0.00,,,0.00,Wunderground PWS Mod,2013-01-10 10:18:00,
2013-01-10 05:24:00,40.8,27.6,30.24,NNE,32,2.0,12.0,59,0.00,,,0.00,Wunderground PWS Mod,2013-01-10 10:24:00,
2013-01-10 05:30:00,40.7,27.9,30.25,WSW,240,2.0,12.0,60,0.00,,,0.00,Wunderground PWS Mod,2013-01-10 10:30:00,
2013-01-10 05:35:00,40.6,27.4,30.25,WNW,286,2.0,12.0,59,0.00,,,0.00,Wunderground PWS Mod,2013-01-10 10:35:00,
2013-01-10 05:40:00,40.7,27.5,30.26,WNW,300,3.0,12.0,59,0.00,,,0.00,Wunderground PWS Mod,2013-01-10 10:40:00,
2013-01-10 05:45:00,40.6,27.4,30.26,WNW,289,3.0,12.0,59,0.00,,,0.00,Wunderground PWS Mod,2013-01-10 10:45:00,
2013-01-10 05:51:00,40.4,27.6,30.27,WNW,296,2.0,12.0,60,0.00,,,0.00,Wunderground PWS Mod,2013-01-10 10:51:00,
2013-01-10 05:56:00,39.9,27.1,30.27,NW,308,1.0,12.0,60,0.00,,,0.00,Wunderground PWS Mod,2013-01-10 10:56:00,
2013-01-10 06:01:00,39.6,27.2,30.27,North,360,1.0,12.0,61,0.00,,,0.00,Wunderground PWS Mod,2013-01-10 11:01:00,
2013-01-10 06:07:00,39.6,26.8,30.27,West,281,2.0,12.0,60,0.00,,,0.00,Wunderground PWS Mod,2013-01-10 11:07:00,
2013-01-10 06:13:00,39.7,26.5,30.27,NE,41,3.0,12.0,59,0.00,,,0.00,Wunderground PWS Mod,2013-01-10 11:13:00,
2013-01-10 06:18:00,39.5,26.3,30.28,WNW,298,3.0,12.0,59,0.00,,,0.00,Wunderground PWS Mod,2013-01-10 11:18:00,
2013-01-10 06:23:00,39.3,25.7,30.28,NW,313,2.0,12.0,58,0.00,,,0.00,Wunderground PWS Mod,2013-01-10 11:23:00,
2013-01-10 06:28:00,39.5,25.9,30.29,NE,46,3.0,12.0,58,0.00,,,0.00,Wunderground PWS Mod,2013-01-10 11:28:00,
2013-01-10 06:34:00,39.4,25.8,30.30,WNW,299,2.0,12.0,58,0.00,,,0.00,Wunderground PWS Mod,2013-01-10 11:34:00,
2013-01-10 06:40:00,39.0,25.9,30.30,WNW,288,2.0,12.0,59,0.00,,,0.00,Wunderground PWS Mod,2013-01-10 11:40:00,
2013-01-10 06:45:00,38.6,25.9,30.30,NW,326,1.0,12.0,60,0.00,,,0.00,Wunderground PWS Mod,2013-01-10 11:45:00,
2013-01-10 06:50:00,38.3,25.6,30.30,WNW,289,1.0,12.0,60,0.00,,,0.00,Wunderground PWS Mod,2013-01-10 11:50:00,
2013-01-10 06:56:00,38.2,25.9,30.30,NW,310,1.0,12.0,61,0.00,,,0.00,Wunderground PWS Mod,2013-01-10 11:56:00,
2013-01-10 07:01:00,38.2,25.5,30.31,WNW,288,1.0,12.0,60,0.00,,,0.00,Wunderground PWS Mod,2013-01-10 12:01:00,
2013-01-10 07:06:00,38.1,25.8,30.32,WNW,294,1.0,12.0,61,0.00,,,0.00,Wunderground PWS Mod,2013-01-10 12:06:00,
2013-01-10 07:11:00,38.0,25.7,30.32,West,279,2.0,12.0,61,0.00,,,0.00,Wunderground PWS Mod,2013-01-10 12:11:00,
2013-01-10 07:16:00,37.9,25.6,30.32,WNW,290,2.0,12.0,61,0.00,,,0.00,Wunderground PWS Mod,2013-01-10 12:16:00,
2013-01-10 07:22:00,37.7,25.8,30.32,WSW,256,1.0,12.0,62,0.00,,,0.00,Wunderground PWS Mod,2013-01-10 12:22:00,
2013-01-10 07:27:00,37.7,25.8,30.33,West,279,1.0,12.0,62,0.00,,,0.00,Wunderground PWS Mod,2013-01-10 12:27:00,
2013-01-10 07:32:00,37.6,25.7,30.33,West,259,1.0,12.0,62,0.00,,,0.00,Wunderground PWS Mod,2013-01-10 12:32:00,
2013-01-10 07:37:00,37.5,25.7,30.34,West,274,1.0,12.0,62,0.00,,,0.00,Wunderground PWS Mod,2013-01-10 12:37:00,
2013-01-10 07:42:00,37.4,25.6,30.34,West,274,0.0,12.0,62,0.00,,,0.00,Wunderground PWS Mod,2013-01-10 12:42:00,
2013-01-10 07:47:00,37.5,25.7,30.35,North,355,0.0,12.0,62,0.00,,,0.00,Wunderground PWS Mod,2013-01-10 12:47:00,
2013-01-10 07:52:00,37.5,25.7,30.35,WNW,296,0.0,12.0,62,0.00,,,0.00,Wunderground PWS Mod,2013-01-10 12:52:00,
2013-01-10 07:58:00,37.5,25.7,30.35,NW,304,2.0,12.0,62,0.00,,,0.00,Wunderground PWS Mod,2013-01-10 12:58:00,
2013-01-10 08:03:00,37.5,25.7,30.35,West,281,3.0,12.0,62,0.00,,,0.00,Wunderground PWS Mod,2013-01-10 13:03:00,
2013-01-10 08:09:00,37.7,25.8,30.35,West,267,2.0,5.0,62,0.00,,,0.00,Wunderground PWS Mod,2013-01-10 13:09:00,
2013-01-10 08:14:00,38.0,25.7,30.35,WNW,282,2.0,5.0,61,0.00,,,0.00,Wunderground PWS Mod,2013-01-10 13:14:00,
2013-01-10 08:20:00,38.3,25.6,30.35,West,267,2.0,5.0,60,0.00,,,0.00,Wunderground PWS Mod,2013-01-10 13:20:00,
2013-01-10 08:25:00,38.4,25.7,30.36,WNW,282,3.0,5.0,60,0.00,,,0.00,Wunderground PWS Mod,2013-01-10 13:25:00,
2013-01-10 08:31:00,38.7,25.6,30.36,WNW,292,3.0,5.0,59,0.00,,,0.00,Wunderground PWS Mod,2013-01-10 13:31:00,
2013-01-10 08:36:00,38.8,25.7,30.36,WNW,283,3.0,5.0,59,0.00,,,0.00,Wunderground PWS Mod,2013-01-10 13:36:00,
2013-01-10 08:41:00,38.8,26.1,30.36,West,278,1.0,5.0,60,0.00,,,0.00,Wunderground PWS Mod,2013-01-10 13:41:00,
2013-01-10 08:47:00,39.1,26.0,30.37,NNW,333,1.0,5.0,59,0.00,,,0.00,Wunderground PWS Mod,2013-01-10 13:47:00,
2013-01-10 08:53:00,39.3,26.2,30.37,West,272,1.0,5.0,59,0.00,,,0.00,Wunderground PWS Mod,2013-01-10 13:53:00,
2013-01-10 08:58:00,39.3,25.7,30.38,NNW,334,1.0,5.0,58,0.00,,,0.00,Wunderground PWS Mod,2013-01-10 13:58:00,
2013-01-10 09:03:00,39.4,26.2,30.37,NNW,346,1.0,5.0,59,0.00,,,0.00,Wunderground PWS Mod,2013-01-10 14:03:00,
2013-01-10 09:08:00,39.6,26.0,30.37,West,274,2.0,5.0,58,0.00,,,0.00,Wunderground PWS Mod,2013-01-10 14:08:00,
2013-01-10 09:13:00,39.7,26.1,30.37,NW,321,3.0,5.0,58,0.00,,,0.00,Wunderground PWS Mod,2013-01-10 14:13:00,
2013-01-10 09:18:00,39.8,26.2,30.37,NW,325,3.0,5.0,58,0.00,,,0.00,Wunderground PWS Mod,2013-01-10 14:18:00,
2013-01-10 09:24:00,40.0,26.0,30.38,NW,304,4.0,5.0,57,0.00,,,0.00,Wunderground PWS Mod,2013-01-10 14:24:00,
2013-01-10 09:30:00,40.0,26.0,30.38,WNW,303,5.0,5.0,57,0.00,,,0.00,Wunderground PWS Mod,2013-01-10 14:30:00,
2013-01-10 09:35:00,40.2,26.2,30.38,WNW,288,4.0,5.0,57,0.00,,,0.00,Wunderground PWS Mod,2013-01-10 14:35:00,
2013-01-10 09:41:00,40.3,26.3,30.38,West,265,4.0,9.0,57,0.00,,,0.00,Wunderground PWS Mod,2013-01-10 14:41:00,
2013-01-10 09:46:00,40.3,25.8,30.38,NNE,14,4.0,5.0,56,0.00,,,0.00,Wunderground PWS Mod,2013-01-10 14:46:00,
2013-01-10 09:51:00,40.5,26.4,30.38,WNW,293,4.0,5.0,57,0.00,,,0.00,Wunderground PWS Mod,2013-01-10 14:51:00,
2013-01-10 09:57:00,40.7,26.2,30.38,North,355,3.0,5.0,56,0.00,,,0.00,Wunderground PWS Mod,2013-01-10 14:57:00,
2013-01-10 10:02:00,40.8,26.3,30.39,West,261,3.0,5.0,56,0.00,,,0.00,Wunderground PWS Mod,2013-01-10 15:02:00,
2013-01-10 10:08:00,41.1,26.6,30.38,West,269,3.0,5.0,56,0.00,,,0.00,Wunderground PWS Mod,2013-01-10 15:08:00,
2013-01-10 10:14:00,41.1,26.1,30.38,West,277,4.0,5.0,55,0.00,,,0.00,Wunderground PWS Mod,2013-01-10 15:14:00,
2013-01-10 10:20:00,41.2,26.7,30.38,SW,234,5.0,5.0,56,0.00,,,0.00,Wunderground PWS Mod,2013-01-10 15:20:00,
2013-01-10 10:25:00,41.3,26.8,30.38,West,265,4.0,5.0,56,0.00,,,0.00,Wunderground PWS Mod,2013-01-10 15:25:00,
2013-01-10 10:30:00,41.3,26.3,30.38,WSW,256,5.0,5.0,55,0.00,,,0.00,Wunderground PWS Mod,2013-01-10 15:30:00,
2013-01-10 10:35:00,41.4,26.9,30.38,NE,55,4.0,7.0,56,0.00,,,0.00,Wunderground PWS Mod,2013-01-10 15:35:00,
2013-01-10 10:41:00,41.6,27.1,30.38,NW,321,3.0,5.0,56,0.00,,,0.00,Wunderground PWS Mod,2013-01-10 15:41:00,
2013-01-10 10:46:00,41.6,26.2,30.38,NW,322,3.0,5.0,54,0.00,,,0.00,Wunderground PWS Mod,2013-01-10 15:46:00,
2013-01-10 10:51:00,41.7,26.7,30.37,NW,311,4.0,5.0,55,0.00,,,0.00,Wunderground PWS Mod,2013-01-10 15:51:00,
2013-01-10 10:57:00,41.8,26.8,30.37,NNW,336,4.0,5.0,55,0.00,,,0.00,Wunderground PWS Mod,2013-01-10 15:57:00,
2013-01-10 11:02:00,42.0,27.0,30.37,North,5,4.0,6.0,55,0.00,,,0.00,Wunderground PWS Mod,2013-01-10 16:02:00,
2013-01-10 11:07:00,42.2,27.2,30.36,WNW,287,4.0,7.0,55,0.00,,,0.00,Wunderground PWS Mod,2013-01-10 16:07:00,
2013-01-10 11:12:00,42.3,26.8,30.35,WNW,282,5.0,7.0,54,0.00,,,0.00,Wunderground PWS Mod,2013-01-10 16:12:00,
2013-01-10 11:17:00,42.3,26.4,30.35,NW,325,6.0,6.0,53,0.00,,,0.00,Wunderground PWS Mod,2013-01-10 16:17:00,
2013-01-10 11:22:00,42.5,27.0,30.35,NW,306,4.0,5.0,54,0.00,,,0.00,Wunderground PWS Mod,2013-01-10 16:22:00,
2013-01-10 11:27:00,42.8,26.8,30.35,NW,323,3.0,7.0,53,0.00,,,0.00,Wunderground PWS Mod,2013-01-10 16:27:00,
2013-01-10 11:33:00,42.7,26.3,30.35,WNW,296,5.0,5.0,52,0.00,,,0.00,Wunderground PWS Mod,2013-01-10 16:33:00,
2013-01-10 11:38:00,42.6,26.6,30.35,WNW,301,5.0,5.0,53,0.00,,,0.00,Wunderground PWS Mod,2013-01-10 16:38:00,
2013-01-10 11:43:00,42.9,26.5,30.34,WNW,294,4.0,5.0,52,0.00,,,0.00,Wunderground PWS Mod,2013-01-10 16:43:00,
2013-01-10 11:49:00,42.9,26.5,30.34,SSW,205,4.0,5.0,52,0.00,,,0.00,Wunderground PWS Mod,2013-01-10 16:49:00,
2013-01-10 11:54:00,43.2,27.2,30.35,NW,317,4.0,5.0,53,0.00,,,0.00,Wunderground PWS Mod,2013-01-10 16:54:00,
2013-01-10 12:00:00,43.3,26.4,30.35,NW,311,4.0,5.0,51,0.00,,,0.00,Wunderground PWS Mod,2013-01-10 17:00:00,
2013-01-10 12:05:00,43.3,26.4,30.34,North,360,4.0,13.0,51,0.00,,,0.00,Wunderground PWS Mod,2013-01-10 17:05:00,
2013-01-10 12:11:00,43.7,26.7,30.34,SSE,150,4.0,13.0,51,0.00,,,0.00,Wunderground PWS Mod,2013-01-10 17:11:00,
2013-01-10 12:14:00,43.3,26.4,30.34,NNW,338,4.0,13.0,51,0.00,,,0.00,Wunderground PWS Mod,2013-01-10 17:14:00,
2013-01-10 12:16:00,43.8,26.3,30.34,ENE,64,3.0,13.0,50,0.00,,,0.00,Wunderground PWS Mod,2013-01-10 17:16:00,
2013-01-10 12:21:00,43.7,25.8,30.34,North,360,4.0,13.0,49,0.00,,,0.00,Wunderground PWS Mod,2013-01-10 17:21:00,
2013-01-10 12:26:00,43.7,26.3,30.34,ENE,78,5.0,13.0,50,0.00,,,0.00,Wunderground PWS Mod,2013-01-10 17:26:00,
2013-01-10 12:32:00,43.9,26.0,30.34,WNW,296,4.0,13.0,49,0.00,,,0.00,Wunderground PWS Mod,2013-01-10 17:32:00,
2013-01-10 12:37:00,43.9,26.0,30.34,NE,42,4.0,13.0,49,0.00,,,0.00,Wunderground PWS Mod,2013-01-10 17:37:00,
2013-01-10 12:42:00,44.2,25.7,30.34,NW,308,4.0,13.0,48,0.00,,,0.00,Wunderground PWS Mod,2013-01-10 17:42:00,
2013-01-10 12:48:00,44.4,25.9,30.34,NNW,332,3.0,13.0,48,0.00,,,0.00,Wunderground PWS Mod,2013-01-10 17:48:00,
2013-01-10 12:54:00,44.4,25.9,30.33,NW,307,3.0,13.0,48,0.00,,,0.00,Wunderground PWS Mod,2013-01-10 17:54:00,
2013-01-10 13:00:00,44.6,26.1,30.34,WNW,298,4.0,13.0,48,0.00,,,0.00,Wunderground PWS Mod,2013-01-10 18:00:00,
2013-01-10 13:05:00,44.6,25.6,30.34,NW,317,4.0,13.0,47,0.00,,,0.00,Wunderground PWS Mod,2013-01-10 18:05:00,
2013-01-10 13:10:00,44.5,26.0,30.34,North,5,4.0,13.0,48,0.00,,,0.00,Wunderground PWS Mod,2013-01-10 18:10:00,
2013-01-10 13:15:00,44.7,25.7,30.34,NW,311,3.0,13.0,47,0.00,,,0.00,Wunderground PWS Mod,2013-01-10 18:15:00,
2013-01-10 13:21:00,44.8,25.8,30.34,WNW,295,3.0,13.0,47,0.00,,,0.00,Wunderground PWS Mod,2013-01-10 18:21:00,
2013-01-10 13:26:00,44.9,25.3,30.34,NE,49,5.0,13.0,46,0.00,,,0.00,Wunderground PWS Mod,2013-01-10 18:26:00,
2013-01-10 13:31:00,45.1,26.1,30.33,NNW,347,5.0,13.0,47,0.00,,,0.00,Wunderground PWS Mod,2013-01-10 18:31:00,
2013-01-10 13:36:00,45.3,25.7,30.34,ENE,60,4.0,13.0,46,0.00,,,0.00,Wunderground PWS Mod,2013-01-10 18:36:00,
2013-01-10 13:41:00,45.4,25.8,30.34,NNW,347,4.0,13.0,46,0.00,,,0.00,Wunderground PWS Mod,2013-01-10 18:41:00,
2013-01-10 13:46:00,45.4,25.3,30.34,NNE,13,4.0,13.0,45,0.00,,,0.00,Wunderground PWS Mod,2013-01-10 18:46:00,
2013-01-10 13:51:00,45.3,25.2,30.35,NE,50,5.0,13.0,45,0.00,,,0.00,Wunderground PWS Mod,2013-01-10 18:51:00,
2013-01-10 13:57:00,45.3,25.2,30.35,NW,315,5.0,13.0,45,0.00,,,0.00,Wunderground PWS Mod,2013-01-10 18:57:00,
2013-01-10 14:03:00,45.2,25.1,30.35,North,5,5.0,13.0,45,0.00,,,0.00,Wunderground PWS Mod,2013-01-10 19:03:00,
2013-01-10 14:08:00,45.2,25.1,30.35,ENE,66,4.0,13.0,45,0.00,,,0.00,Wunderground PWS Mod,2013-01-10 19:08:00,
2013-01-10 14:13:00,45.1,25.0,30.36,North,5,4.0,13.0,45,0.00,,,0.00,Wunderground PWS Mod,2013-01-10 19:13:00,
2013-01-10 14:18:00,45.1,24.5,30.36,NW,323,5.0,13.0,44,0.00,,,0.00,Wunderground PWS Mod,2013-01-10 19:18:00,
2013-01-10 14:24:00,45.1,25.0,30.36,North,355,5.0,13.0,45,0.00,,,0.00,Wunderground PWS Mod,2013-01-10 19:24:00,
2013-01-10 14:30:00,45.1,25.5,30.36,NW,307,5.0,13.0,46,0.00,,,0.00,Wunderground PWS Mod,2013-01-10 19:30:00,
2013-01-10 14:35:00,45.2,25.1,30.36,NW,313,4.0,13.0,45,0.00,,,0.00,Wunderground PWS Mod,2013-01-10 19:35:00,
2013-01-10 14:41:00,45.3,25.2,30.36,NW,319,4.0,13.0,45,0.00,,,0.00,Wunderground PWS Mod,2013-01-10 19:41:00,
2013-01-10 14:46:00,45.2,25.6,30.36,WNW,300,4.0,13.0,46,0.00,,,0.00,Wunderground PWS Mod,2013-01-10 19:46:00,
2013-01-10 14:52:00,45.2,25.1,30.36,North,351,4.0,13.0,45,0.00,,,0.00,Wunderground PWS Mod,2013-01-10 19:52:00,
2013-01-10 14:57:00,45.1,24.5,30.36,NE,49,5.0,13.0,44,0.00,,,0.00,Wunderground PWS Mod,2013-01-10 19:57:00,
2013-01-10 15:02:00,44.9,24.3,30.36,NNE,23,5.0,13.0,44,0.00,,,0.00,Wunderground PWS Mod,2013-01-10 20:02:00,
2013-01-10 15:07:00,45.0,24.9,30.37,NNE,27,5.0,13.0,45,0.00,,,0.00,Wunderground PWS Mod,2013-01-10 20:07:00,
2013-01-10 15:13:00,44.9,24.8,30.37,NNE,13,4.0,13.0,45,0.00,,,0.00,Wunderground PWS Mod,2013-01-10 20:13:00,
2013-01-10 15:18:00,44.8,24.7,30.37,NNW,329,3.0,13.0,45,0.00,,,0.00,Wunderground PWS Mod,2013-01-10 20:18:00,
2013-01-10 15:23:00,44.7,24.6,30.36,NNW,331,4.0,13.0,45,0.00,,,0.00,Wunderground PWS Mod,2013-01-10 20:23:00,
2013-01-10 15:28:00,44.6,24.5,30.37,North,350,4.0,13.0,45,0.00,,,0.00,Wunderground PWS Mod,2013-01-10 20:28:00,
2013-01-10 15:34:00,44.6,24.5,30.38,NE,34,2.0,13.0,45,0.00,,,0.00,Wunderground PWS Mod,2013-01-10 20:34:00,
2013-01-10 15:40:00,44.5,24.5,30.38,NW,325,3.0,13.0,45,0.00,,,0.00,Wunderground PWS Mod,2013-01-10 20:40:00,
2013-01-10 15:45:00,44.3,24.8,30.38,NNE,18,3.0,13.0,46,0.00,,,0.00,Wunderground PWS Mod,2013-01-10 20:45:00,
2013-01-10 15:50:00,44.3,24.8,30.39,North,355,3.0,13.0,46,0.00,,,0.00,Wunderground PWS Mod,2013-01-10 20:50:00,
2013-01-10 15:56:00,44.2,24.7,30.39,NW,304,3.0,13.0,46,0.00,,,0.00,Wunderground PWS Mod,2013-01-10 20:56:00,
2013-01-10 16:01:00,44.2,24.7,30.40,NNW,329,3.0,13.0,46,0.00,,,0.00,Wunderground PWS Mod,2013-01-10 21:01:00,
2013-01-10 16:07:00,44.1,24.6,30.40,NNW,338,3.0,8.0,46,0.00,,,0.00,Wunderground PWS Mod,2013-01-10 21:07:00,
2013-01-10 16:12:00,44.0,24.5,30.40,NNW,338,2.0,8.0,46,0.00,,,0.00,Wunderground PWS Mod,2013-01-10 21:12:00,
2013-01-10 16:14:00,44.1,24.6,30.39,NNW,338,3.0,8.0,46,0.00,,,0.00,Wunderground PWS Mod,2013-01-10 21:14:00,
2013-01-10 16:18:00,44.0,25.0,30.41,NNE,19,2.0,8.0,47,0.00,,,0.00,Wunderground PWS Mod,2013-01-10 21:18:00,
2013-01-10 16:23:00,43.8,24.3,30.40,NW,323,2.0,8.0,46,0.00,,,0.00,Wunderground PWS Mod,2013-01-10 21:23:00,
2013-01-10 16:28:00,43.6,24.7,30.40,North,9,2.0,8.0,47,0.00,,,0.00,Wunderground PWS Mod,2013-01-10 21:28:00,
2013-01-10 16:33:00,43.4,25.0,30.40,NNW,331,2.0,8.0,48,0.00,,,0.00,Wunderground PWS Mod,2013-01-10 21:33:00,
2013-01-10 16:38:00,43.1,24.7,30.41,NNW,328,1.0,8.0,48,0.00,,,0.00,Wunderground PWS Mod,2013-01-10 21:38:00,
2013-01-10 16:43:00,42.8,24.9,30.41,NNW,328,0.0,8.0,49,0.00,,,0.00,Wunderground PWS Mod,2013-01-10 21:43:00,
2013-01-10 16:49:00,42.4,25.1,30.41,NW,319,0.0,8.0,50,0.00,,,0.00,Wunderground PWS Mod,2013-01-10 21:49:00,
2013-01-10 16:54:00,42.2,24.9,30.41,ENE,62,0.0,8.0,50,0.00,,,0.00,Wunderground PWS Mod,2013-01-10 21:54:00,
2013-01-10 17:00:00,41.9,25.1,30.41,NNE,18,0.0,8.0,51,0.00,,,0.00,Wunderground PWS Mod,2013-01-10 22:00:00,
2013-01-10 17:05:00,41.7,24.9,30.42,North,355,0.0,8.0,51,0.00,,,0.00,Wunderground PWS Mod,2013-01-10 22:05:00,
2013-01-10 17:11:00,41.6,24.8,30.42,North,355,0.0,8.0,51,0.00,,,0.00,Wunderground PWS Mod,2013-01-10 22:11:00,
2013-01-10 17:16:00,41.5,25.2,30.42,NW,310,0.0,8.0,52,0.00,,,0.00,Wunderground PWS Mod,2013-01-10 22:16:00,
2013-01-10 17:21:00,41.3,25.0,30.43,NE,38,1.0,8.0,52,0.00,,,0.00,Wunderground PWS Mod,2013-01-10 22:21:00,
2013-01-10 17:27:00,41.1,24.8,30.43,North,11,1.0,8.0,52,0.00,,,0.00,Wunderground PWS Mod,2013-01-10 22:27:00,
2013-01-10 17:32:00,41.1,25.3,30.44,NNE,15,0.0,8.0,53,0.00,,,0.00,Wunderground PWS Mod,2013-01-10 22:32:00,
2013-01-10 17:37:00,41.1,24.8,30.43,North,355,1.0,8.0,52,0.00,,,0.00,Wunderground PWS Mod,2013-01-10 22:37:00,
2013-01-10 17:43:00,41.0,25.2,30.44,NW,324,1.0,8.0,53,0.00,,,0.00,Wunderground PWS Mod,2013-01-10 22:43:00,
2013-01-10 17:48:00,40.9,25.1,30.43,NNW,338,1.0,8.0,53,0.00,,,0.00,Wunderground PWS Mod,2013-01-10 22:48:00,
2013-01-10 17:55:00,40.5,25.1,30.44,NNW,338,0.0,8.0,54,0.00,,,0.00,Wunderground PWS Mod,2013-01-10 22:55:00,
2013-01-10 18:01:00,40.2,25.3,30.45,NNW,328,0.0,8.0,55,0.00,,,0.00,Wunderground PWS Mod,2013-01-10 23:01:00,
2013-01-10 18:08:00,39.9,25.0,30.44,NW,325,0.0,8.0,55,0.00,,,0.00,Wunderground PWS Mod,2013-01-10 23:08:00,
2013-01-10 18:13:00,39.8,24.9,30.44,NNW,335,0.0,8.0,55,0.00,,,0.00,Wunderground PWS Mod,2013-01-10 23:13:00,
2013-01-10 18:18:00,39.8,24.9,30.44,NNW,333,1.0,8.0,55,0.00,,,0.00,Wunderground PWS Mod,2013-01-10 23:18:00,
2013-01-10 18:24:00,39.7,25.3,30.45,NNW,333,0.0,8.0,56,0.00,,,0.00,Wunderground PWS Mod,2013-01-10 23:24:00,
2013-01-10 18:30:00,39.5,25.1,30.45,NNW,333,0.0,8.0,56,0.00,,,0.00,Wunderground PWS Mod,2013-01-10 23:30:00,
2013-01-10 18:36:00,39.3,24.9,30.45,NNW,333,0.0,8.0,56,0.00,,,0.00,Wunderground PWS Mod,2013-01-10 23:36:00,
2013-01-10 18:41:00,39.2,25.2,30.45,NW,312,0.0,8.0,57,0.00,,,0.00,Wunderground PWS Mod,2013-01-10 23:41:00,
2013-01-10 18:47:00,39.0,25.5,30.45,NW,312,0.0,8.0,58,0.00,,,0.00,Wunderground PWS Mod,2013-01-10 23:47:00,
2013-01-10 18:52:00,38.7,25.2,30.45,NW,311,0.0,8.0,58,0.00,,,0.00,Wunderground PWS Mod,2013-01-10 23:52:00,
2013-01-10 18:58:00,38.4,25.3,30.45,NW,311,0.0,8.0,59,0.00,,,0.00,Wunderground PWS Mod,2013-01-10 23:58:00,
2013-01-10 19:03:00,38.1,25.4,30.46,NW,311,0.0,8.0,60,0.00,,,0.00,Wunderground PWS Mod,2013-01-11 00:03:00,
2013-01-10 19:08:00,37.9,24.8,30.46,NW,311,0.0,8.0,59,0.00,,,0.00,Wunderground PWS Mod,2013-01-11 00:08:00,
2013-01-10 19:13:00,37.7,25.1,30.46,NW,311,0.0,8.0,60,0.00,,,0.00,Wunderground PWS Mod,2013-01-11 00:13:00,
2013-01-10 19:19:00,37.4,24.8,30.46,NW,311,0.0,8.0,60,0.00,,,0.00,Wunderground PWS Mod,2013-01-11 00:19:00,
2013-01-10 19:24:00,37.2,25.0,30.47,NW,311,0.0,8.0,61,0.00,,,0.00,Wunderground PWS Mod,2013-01-11 00:24:00,
2013-01-10 19:30:00,37.1,24.9,30.46,NW,311,0.0,8.0,61,0.00,,,0.00,Wunderground PWS Mod,2013-01-11 00:30:00,
2013-01-10 19:36:00,36.9,25.1,30.47,NW,311,0.0,8.0,62,0.00,,,0.00,Wunderground PWS Mod,2013-01-11 00:36:00,
2013-01-10 19:41:00,36.7,24.9,30.47,NW,311,0.0,8.0,62,0.00,,,0.00,Wunderground PWS Mod,2013-01-11 00:41:00,
2013-01-10 19:46:00,36.8,25.4,30.47,NW,310,0.0,8.0,63,0.00,,,0.00,Wunderground PWS Mod,2013-01-11 00:46:00,
2013-01-10 19:53:00,36.6,25.2,30.48,NW,304,0.0,8.0,63,0.00,,,0.00,Wunderground PWS Mod,2013-01-11 00:53:00,
2013-01-10 19:58:00,36.7,25.3,30.48,WNW,303,0.0,8.0,63,0.00,,,0.00,Wunderground PWS Mod,2013-01-11 00:58:00,
2013-01-10 20:04:00,36.6,25.2,30.48,NW,304,0.0,8.0,63,0.00,,,0.00,Wunderground PWS Mod,2013-01-11 01:04:00,
2013-01-10 20:09:00,36.7,25.7,30.48,WNW,293,0.0,3.0,64,0.00,,,0.00,Wunderground PWS Mod,2013-01-11 01:09:00,
2013-01-10 20:10:00,36.7,25.7,30.48,NW,304,0.0,3.0,64,0.00,,,0.00,Wunderground PWS Mod,2013-01-11 01:10:00,
2013-01-10 20:15:00,36.7,25.3,30.48,WNW,300,0.0,3.0,63,0.00,,,0.00,Wunderground PWS Mod,2013-01-11 01:15:00,
2013-01-10 20:21:00,36.8,25.4,30.48,WNW,300,0.0,3.0,63,0.00,,,0.00,Wunderground PWS Mod,2013-01-11 01:21:00,
2013-01-10 20:26:00,36.6,25.6,30.48,WNW,300,0.0,3.0,64,0.00,,,0.00,Wunderground PWS Mod,2013-01-11 01:26:00,
2013-01-10 20:31:00,36.7,25.3,30.49,NW,311,0.0,3.0,63,0.00,,,0.00,Wunderground PWS Mod,2013-01-11 01:31:00,
2013-01-10 20:36:00,36.7,25.7,30.48,NW,311,0.0,3.0,64,0.00,,,0.00,Wunderground PWS Mod,2013-01-11 01:36:00,
2013-01-10 20:42:00,36.4,25.4,30.48,NW,311,0.0,3.0,64,0.00,,,0.00,Wunderground PWS Mod,2013-01-11 01:42:00,
2013-01-10 20:47:00,36.3,25.3,30.48,NW,311,0.0,3.0,64,0.00,,,0.00,Wunderground PWS Mod,2013-01-11 01:47:00,
2013-01-10 20:52:00,36.2,25.2,30.49,NW,311,0.0,3.0,64,0.00,,,0.00,Wunderground PWS Mod,2013-01-11 01:52:00,
2013-01-10 20:58:00,36.0,25.4,30.49,NW,311,0.0,3.0,65,0.00,,,0.00,Wunderground PWS Mod,2013-01-11 01:58:00,
2013-01-10 21:03:00,35.8,25.2,30.49,NW,311,0.0,3.0,65,0.00,,,0.00,Wunderground PWS Mod,2013-01-11 02:03:00,
2013-01-10 21:08:00,35.7,25.1,30.48,NW,311,0.0,3.0,65,0.00,,,0.00,Wunderground PWS Mod,2013-01-11 02:08:00,
2013-01-10 21:14:00,35.7,25.1,30.49,NW,311,0.0,3.0,65,0.00,,,0.00,Wunderground PWS Mod,2013-01-11 02:14:00,
2013-01-10 21:20:00,35.8,25.2,30.49,NW,326,0.0,3.0,65,0.00,,,0.00,Wunderground PWS Mod,2013-01-11 02:20:00,
2013-01-10 21:26:00,36.0,25.4,30.49,NW,307,1.0,3.0,65,0.00,,,0.00,Wunderground PWS Mod,2013-01-11 02:26:00,
2013-01-10 21:32:00,35.9,25.3,30.49,NW,306,1.0,3.0,65,0.00,,,0.00,Wunderground PWS Mod,2013-01-11 02:32:00,
2013-01-10 21:37:00,35.7,25.4,30.49,NW,306,0.0,3.0,66,0.00,,,0.00,Wunderground PWS Mod,2013-01-11 02:37:00,
2013-01-10 21:42:00,35.7,25.4,30.49,NNW,333,0.0,3.0,66,0.00,,,0.00,Wunderground PWS Mod,2013-01-11 02:42:00,
2013-01-10 21:47:00,35.7,25.4,30.50,NNW,333,0.0,3.0,66,0.00,,,0.00,Wunderground PWS Mod,2013-01-11 02:47:00,
2013-01-10 21:53:00,35.7,25.4,30.50,NNW,333,0.0,3.0,66,0.00,,,0.00,Wunderground PWS Mod,2013-01-11 02:53:00,
2013-01-10 21:59:00,35.6,25.4,30.49,NNW,333,0.0,3.0,66,0.00,,,0.00,Wunderground PWS Mod,2013-01-11 02:59:00,
2013-01-10 22:04:00,35.6,25.4,30.49,NNW,333,0.0,3.0,66,0.00,,,0.00,Wunderground PWS Mod,2013-01-11 03:04:00,
2013-01-10 22:10:00,35.5,25.3,30.49,NNW,333,0.0,3.0,66,0.00,,,0.00,Wunderground PWS Mod,2013-01-11 03:10:00,
2013-01-10 22:16:00,35.2,25.3,30.49,NNW,333,0.0,3.0,67,0.00,,,0.00,Wunderground PWS Mod,2013-01-11 03:16:00,
2013-01-10 22:21:00,35.1,25.2,30.49,NNW,333,0.0,3.0,67,0.00,,,0.00,Wunderground PWS Mod,2013-01-11 03:21:00,
2013-01-10 22:26:00,35.0,25.1,30.49,North,355,0.0,3.0,67,0.00,,,0.00,Wunderground PWS Mod,2013-01-11 03:26:00,
2013-01-10 22:32:00,34.8,25.3,30.49,North,360,0.0,3.0,68,0.00,,,0.00,Wunderground PWS Mod,2013-01-11 03:32:00,
2013-01-10 22:37:00,34.6,25.1,30.49,North,355,0.0,3.0,68,0.00,,,0.00,Wunderground PWS Mod,2013-01-11 03:37:00,
2013-01-10 22:43:00,34.5,25.4,30.49,North,355,0.0,3.0,69,0.00,,,0.00,Wunderground PWS Mod,2013-01-11 03:43:00,
2013-01-10 22:48:00,34.6,25.1,30.48,North,355,0.0,3.0,68,0.00,,,0.00,Wunderground PWS Mod,2013-01-11 03:48:00,
2013-01-10 22:54:00,34.4,25.3,30.48,North,355,0.0,3.0,69,0.00,,,0.00,Wunderground PWS Mod,2013-01-11 03:54:00,
2013-01-10 23:00:00,34.2,25.1,30.48,North,355,0.0,3.0,69,0.00,,,0.00,Wunderground PWS Mod,2013-01-11 04:00:00,
2013-01-10 23:05:00,34.2,25.4,30.48,NNE,22,0.0,3.0,70,0.00,,,0.00,Wunderground PWS Mod,2013-01-11 04:05:00,
2013-01-10 23:11:00,34.5,25.4,30.48,NNE,13,0.0,3.0,69,0.00,,,0.00,Wunderground PWS Mod,2013-01-11 04:11:00,
2013-01-10 23:16:00,34.5,25.4,30.47,NNW,332,0.0,3.0,69,0.00,,,0.00,Wunderground PWS Mod,2013-01-11 04:16:00,
2013-01-10 23:21:00,34.4,25.6,30.47,North,355,1.0,3.0,70,0.00,,,0.00,Wunderground PWS Mod,2013-01-11 04:21:00,
2013-01-10 23:26:00,34.5,25.7,30.48,NE,44,0.0,3.0,70,0.00,,,0.00,Wunderground PWS Mod,2013-01-11 04:26:00,
2013-01-10 23:32:00,34.4,25.6,30.48,NNW,341,0.0,3.0,70,0.00,,,0.00,Wunderground PWS Mod,2013-01-11 04:32:00,
2013-01-10 23:37:00,34.3,25.5,30.47,NW,323,2.0,3.0,70,0.00,,,0.00,Wunderground PWS Mod,2013-01-11 04:37:00,
2013-01-10 23:43:00,34.2,25.4,30.47,NNE,21,1.0,3.0,70,0.00,,,0.00,Wunderground PWS Mod,2013-01-11 04:43:00,
2013-01-10 23:48:00,34.1,25.3,30.48,North,360,0.0,3.0,70,0.00,,,0.00,Wunderground PWS Mod,2013-01-11 04:48:00,
2013-01-10 23:53:00,34.1,25.3,30.48,NNW,345,0.0,3.0,70,0.00,,,0.00,Wunderground PWS Mod,2013-01-11 04:53:00,
2013-01-10 23:59:00,34.0,25.2,30.48,NNW,346,0.0,3.0,70,0.00,,,0.00,Wunderground PWS Mod,2013-01-11 04:59:00,